Positano Jet — IFTU — position and weather

sailwx.info

Track history (hours):
 
Tides and Currents Weather Stations Pressure Air Temp Water Temp Dewpoint Dewpoint Depression Visibility Wind Speed Wind Dir Waves Ship Positions

Positano Jet

Last reported at 2017-Oct-28 07:30 UTC. Time now 2017-Nov-20 13:55 UTC.
Position N 40°42' E 014°26'.
Warning: this ship's position is 23 days out of date.

Length 23 m; draft 2 m.

Type: Ship. MMSI: 247160800.

Date/timePositionNaut miles runAvg speedWind from/ knotsBaromVisibWave heightAir tempDewpointWater temp
2017-Oct-28 07:30N 40°42' E 014°26'712.7
2017-Oct-28 06:55N 40°35' E 014°22'5 0.4
2017-Oct-27 16:32N 40°37' E 014°29'123.5
2017-Oct-27 16:31N 40°37' E 014°28'5 4.2
2017-Oct-27 15:21N 40°35' E 014°22'5 3.2
2017-Oct-27 13:45N 40°37' E 014°28'8 6.5
2017-Oct-27 12:32N 40°36' E 014°18'020.3
2017-Oct-27 12:30N 40°36' E 014°18'5 9.8
2017-Oct-27 12:00N 40°38' E 014°24'0 0.0
2017-Oct-27 11:30N 40°38' E 014°24'0 0.0
2017-Oct-27 11:00N 40°38' E 014°24'0 0.0
2017-Oct-27 10:30N 40°38' E 014°24'0 0.0
2017-Oct-27 10:00N 40°38' E 014°24'3 5.6
2017-Oct-27 09:30N 40°38' E 014°20'4 5.9
2017-Oct-27 08:50N 40°34' E 014°22'6 0.3
2017-Oct-26 16:34N 40°37' E 014°29'123.3
2017-Oct-26 16:30N 40°36' E 014°27'4 3.9
2017-Oct-26 15:23N 40°34' E 014°22'6 3.7
2017-Oct-26 13:46N 40°37' E 014°29'6 1.2
2017-Oct-26 08:51N 40°34' E 014°22'6 0.4
2017-Oct-25 16:34N 40°37' E 014°29'122.8
2017-Oct-25 16:31N 40°37' E 014°28'5 3.9
2017-Oct-25 15:21N 40°35' E 014°22'6 3.7
2017-Oct-25 13:47N 40°37' E 014°29'6 1.2
2017-Oct-25 08:48N 40°35' E 014°22'  
2017-Oct-22 13:44N 40°37' E 014°29'522.8
2017-Oct-22 13:30N 40°35' E 014°23'1 0.2
2017-Oct-22 08:50N 40°34' E 014°22'6 0.4
2017-Oct-21 16:33N 40°37' E 014°29'123.1
2017-Oct-21 16:30N 40°37' E 014°28'5 4.1
2017-Oct-21 15:22N 40°34' E 014°22'6 4.0
2017-Oct-21 13:51N 40°38' E 014°29'616.0
2017-Oct-21 13:30N 40°34' E 014°23'610.4
2017-Oct-21 12:54N 40°34' E 014°15'512.9
2017-Oct-21 12:30N 40°37' E 014°19'2 4.7
2017-Oct-21 12:00N 40°39' E 014°22'2 3.8
2017-Oct-21 11:30N 40°38' E 014°24'0 0.0
2017-Oct-21 11:00N 40°38' E 014°24'0 0.0
2017-Oct-21 10:30N 40°38' E 014°24'0 0.0
2017-Oct-21 10:00N 40°38' E 014°24'4 7.9
2017-Oct-21 09:30N 40°37' E 014°19'4 5.3
2017-Oct-21 08:50N 40°34' E 014°22'6 0.4
2017-Oct-20 16:33N 40°37' E 014°29'123.6
2017-Oct-20 16:30N 40°36' E 014°28'5 4.2
2017-Oct-20 15:21N 40°34' E 014°22'6 4.1
2017-Oct-20 13:50N 40°38' E 014°29'617.2
2017-Oct-20 13:30N 40°34' E 014°23'6 8.0
2017-Oct-20 12:42N 40°34' E 014°15'6 1.4
2017-Oct-20 08:49N 40°34' E 014°22'6 0.4
2017-Oct-19 16:33N 40°37' E 014°29'123.4
2017-Oct-19 16:30N 40°36' E 014°28'5 4.2
2017-Oct-19 15:24N 40°34' E 014°22'6 3.3
2017-Oct-19 13:43N 40°37' E 014°29'523.2
2017-Oct-19 13:30N 40°34' E 014°23'1 0.7
2017-Oct-19 12:22N 40°34' E 014°22'6 2.2
2017-Oct-19 09:50N 40°37' E 014°28'5 5.3
2017-Oct-19 08:49N 40°34' E 014°22'6 0.3
2017-Oct-18 16:32N 40°37' E 014°29'123.3
2017-Oct-18 16:30N 40°36' E 014°28'5 4.2
2017-Oct-18 15:23N 40°34' E 014°22'5 3.1
2017-Oct-18 13:42N 40°37' E 014°28'422.9
2017-Oct-18 13:30N 40°34' E 014°23'1 0.6
2017-Oct-18 12:23N 40°34' E 014°22'5 2.1
2017-Oct-18 09:47N 40°37' E 014°29'6 5.7
2017-Oct-18 08:49N 40°34' E 014°22'  
Track history (hours):
 
Tides and Currents Weather Stations Pressure Air Temp Water Temp Dewpoint Dewpoint Depression Visibility Wind Speed Wind Dir Waves Ship Positions

Positano Jet

Last reported at 2017-Oct-28 07:30 UTC. Time now 2017-Nov-20 13:55 UTC.
Position N 40°42' E 014°26'.
Warning: this ship's position is 23 days out of date.

Length 23 m; draft 2 m.

Type: Ship. MMSI: 247160800.

Date/timePositionNaut miles runAvg speedWind from/ knotsBaromVisibWave heightAir tempDewpointWater temp
2017-Oct-28 07:30N 40°42' E 014°26'712.7
2017-Oct-28 06:55N 40°35' E 014°22'5 0.4
2017-Oct-27 16:32N 40°37' E 014°29'123.5
2017-Oct-27 16:31N 40°37' E 014°28'5 4.2
2017-Oct-27 15:21N 40°35' E 014°22'5 3.2
2017-Oct-27 13:45N 40°37' E 014°28'8 6.5
2017-Oct-27 12:32N 40°36' E 014°18'020.3
2017-Oct-27 12:30N 40°36' E 014°18'5 9.8
2017-Oct-27 12:00N 40°38' E 014°24'0 0.0
2017-Oct-27 11:30N 40°38' E 014°24'0 0.0
2017-Oct-27 11:00N 40°38' E 014°24'0 0.0
2017-Oct-27 10:30N 40°38' E 014°24'0 0.0
2017-Oct-27 10:00N 40°38' E 014°24'3 5.6
2017-Oct-27 09:30N 40°38' E 014°20'4 5.9
2017-Oct-27 08:50N 40°34' E 014°22'6 0.3
2017-Oct-26 16:34N 40°37' E 014°29'123.3
2017-Oct-26 16:30N 40°36' E 014°27'4 3.9
2017-Oct-26 15:23N 40°34' E 014°22'6 3.7
2017-Oct-26 13:46N 40°37' E 014°29'6 1.2
2017-Oct-26 08:51N 40°34' E 014°22'6 0.4
2017-Oct-25 16:34N 40°37' E 014°29'122.8
2017-Oct-25 16:31N 40°37' E 014°28'5 3.9
2017-Oct-25 15:21N 40°35' E 014°22'6 3.7
2017-Oct-25 13:47N 40°37' E 014°29'6 1.2
2017-Oct-25 08:48N 40°35' E 014°22'  
2017-Oct-22 13:44N 40°37' E 014°29'522.8
2017-Oct-22 13:30N 40°35' E 014°23'1 0.2
2017-Oct-22 08:50N 40°34' E 014°22'6 0.4
2017-Oct-21 16:33N 40°37' E 014°29'123.1
2017-Oct-21 16:30N 40°37' E 014°28'5 4.1
2017-Oct-21 15:22N 40°34' E 014°22'6 4.0
2017-Oct-21 13:51N 40°38' E 014°29'616.0
2017-Oct-21 13:30N 40°34' E 014°23'610.4
2017-Oct-21 12:54N 40°34' E 014°15'512.9
2017-Oct-21 12:30N 40°37' E 014°19'2 4.7
2017-Oct-21 12:00N 40°39' E 014°22'2 3.8
2017-Oct-21 11:30N 40°38' E 014°24'0 0.0
2017-Oct-21 11:00N 40°38' E 014°24'0 0.0
2017-Oct-21 10:30N 40°38' E 014°24'0 0.0
2017-Oct-21 10:00N 40°38' E 014°24'4 7.9
2017-Oct-21 09:30N 40°37' E 014°19'4 5.3
2017-Oct-21 08:50N 40°34' E 014°22'6 0.4
2017-Oct-20 16:33N 40°37' E 014°29'123.6
2017-Oct-20 16:30N 40°36' E 014°28'5 4.2
2017-Oct-20 15:21N 40°34' E 014°22'6 4.1
2017-Oct-20 13:50N 40°38' E 014°29'617.2
2017-Oct-20 13:30N 40°34' E 014°23'6 8.0
2017-Oct-20 12:42N 40°34' E 014°15'6 1.4
2017-Oct-20 08:49N 40°34' E 014°22'6 0.4
2017-Oct-19 16:33N 40°37' E 014°29'123.4
2017-Oct-19 16:30N 40°36' E 014°28'5 4.2
2017-Oct-19 15:24N 40°34' E 014°22'6 3.3
2017-Oct-19 13:43N 40°37' E 014°29'523.2
2017-Oct-19 13:30N 40°34' E 014°23'1 0.7
2017-Oct-19 12:22N 40°34' E 014°22'6 2.2
2017-Oct-19 09:50N 40°37' E 014°28'5 5.3
2017-Oct-19 08:49N 40°34' E 014°22'6 0.3
2017-Oct-18 16:32N 40°37' E 014°29'123.3
2017-Oct-18 16:30N 40°36' E 014°28'5 4.2
2017-Oct-18 15:23N 40°34' E 014°22'5 3.1
2017-Oct-18 13:42N 40°37' E 014°28'422.9
2017-Oct-18 13:30N 40°34' E 014°23'1 0.6
2017-Oct-18 12:23N 40°34' E 014°22'5 2.1
2017-Oct-18 09:47N 40°37' E 014°29'6 5.7
2017-Oct-18 08:49N 40°34' E 014°22'  

Dump ship's entire track history